createdAt,value
2018-10-17T00:01:41.376Z,12.60
2018-10-17T00:04:09.007Z,12.60
2018-10-17T00:06:36.685Z,12.50
2018-10-17T00:09:06.728Z,12.50
2018-10-17T00:11:34.780Z,12.60
2018-10-17T00:14:02.371Z,12.60
2018-10-17T00:16:29.969Z,12.50
2018-10-17T00:18:57.554Z,12.60
2018-10-17T00:21:25.175Z,12.50
2018-10-17T00:23:52.784Z,12.40
2018-10-17T00:26:20.461Z,12.40
2018-10-17T00:28:48.065Z,12.30
2018-10-17T00:31:15.766Z,12.20
2018-10-17T00:33:43.349Z,12.30
2018-10-17T00:36:11.774Z,12.30
2018-10-17T00:38:39.445Z,12.20
2018-10-17T00:41:07.033Z,12.20
2018-10-17T00:43:34.639Z,12.20
2018-10-17T00:46:02.236Z,12.30
2018-10-17T00:48:29.795Z,12.30
2018-10-17T00:50:57.388Z,12.30
2018-10-17T00:53:25.061Z,12.20
2018-10-17T00:55:53.518Z,12.30
2018-10-17T00:58:21.421Z,12.30
2018-10-17T01:00:49.011Z,12.30
2018-10-17T01:03:16.642Z,12.30
2018-10-17T01:05:44.221Z,12.30
2018-10-17T01:08:11.926Z,12.20
2018-10-17T01:10:39.536Z,12.20
2018-10-17T01:13:07.962Z,12.30
2018-10-17T01:15:35.591Z,12.20
2018-10-17T01:18:03.185Z,12.20
2018-10-17T01:20:31.560Z,12.00
2018-10-17T01:22:59.281Z,11.80
2018-10-17T01:25:27.122Z,11.90
2018-10-17T01:27:54.818Z,11.90
2018-10-17T01:30:22.386Z,11.90
2018-10-17T01:32:49.983Z,11.80
2018-10-17T01:35:17.598Z,11.90
2018-10-17T01:37:45.206Z,11.90
2018-10-17T01:40:12.856Z,11.80
2018-10-17T01:42:40.446Z,11.90
2018-10-17T01:45:09.123Z,11.90
2018-10-17T01:47:36.737Z,11.90
2018-10-17T01:50:05.240Z,11.90
2018-10-17T01:52:32.838Z,11.80
2018-10-17T01:55:01.001Z,11.80
2018-10-17T01:57:28.574Z,11.60
2018-10-17T01:59:56.158Z,11.60
2018-10-17T02:02:23.753Z,11.50
2018-10-17T02:04:51.355Z,11.50
2018-10-17T02:07:18.991Z,11.60
2018-10-17T02:09:47.326Z,11.70
2018-10-17T02:12:14.986Z,11.80
2018-10-17T02:14:42.588Z,11.60
2018-10-17T02:17:10.318Z,11.70
2018-10-17T02:19:37.917Z,11.70
2018-10-17T02:22:05.514Z,11.60
2018-10-17T02:24:33.133Z,11.50
2018-10-17T02:27:00.691Z,11.50
2018-10-17T02:29:28.521Z,11.70
2018-10-17T02:31:56.213Z,11.60
2018-10-17T02:34:23.810Z,11.60
2018-10-17T02:36:51.559Z,11.50
2018-10-17T02:39:19.145Z,11.30
2018-10-17T02:41:46.825Z,11.30
2018-10-17T02:44:14.434Z,11.20
2018-10-17T02:46:42.087Z,11.20
2018-10-17T02:49:09.747Z,11.20
2018-10-17T02:51:37.322Z,11.10
2018-10-17T02:54:06.201Z,11.10
2018-10-17T02:56:33.829Z,11.00
2018-10-17T02:59:02.200Z,10.90
2018-10-17T03:01:30.432Z,11.00
2018-10-17T03:03:58.095Z,11.10
2018-10-17T03:06:25.798Z,11.00
2018-10-17T03:08:53.386Z,11.00
2018-10-17T03:11:20.933Z,11.00
2018-10-17T03:13:49.425Z,10.90
2018-10-17T03:16:17.060Z,11.00
2018-10-17T03:18:44.672Z,11.10
2018-10-17T03:21:12.267Z,11.00
2018-10-17T03:23:40.024Z,10.90
2018-10-17T03:26:07.746Z,10.80
2018-10-17T03:28:35.430Z,11.00
2018-10-17T03:31:03.056Z,11.10
2018-10-17T03:33:30.573Z,11.10
2018-10-17T03:35:58.416Z,11.00
2018-10-17T03:38:25.978Z,10.90
2018-10-17T03:40:53.658Z,10.90
2018-10-17T03:43:21.564Z,11.00
2018-10-17T03:45:49.187Z,11.00
2018-10-17T03:48:16.784Z,10.90
2018-10-17T03:50:44.424Z,10.70
2018-10-17T03:53:12.041Z,10.70
2018-10-17T03:55:40.365Z,10.70
2018-10-17T03:58:08.197Z,10.90
2018-10-17T04:00:36.603Z,10.90
2018-10-17T04:03:04.534Z,10.90
2018-10-17T04:05:36.727Z,10.90
2018-10-17T04:08:04.387Z,10.80
2018-10-17T04:10:32.005Z,10.80
2018-10-17T04:13:03.758Z,10.80
2018-10-17T04:18:06.531Z,10.70
2018-10-17T04:20:35.790Z,10.70
2018-10-17T04:23:03.647Z,10.80
2018-10-17T04:25:32.101Z,10.80
2018-10-17T04:27:59.939Z,10.90
2018-10-17T04:30:27.622Z,10.70
2018-10-17T04:32:55.308Z,10.60
2018-10-17T04:35:22.950Z,10.70
2018-10-17T04:37:51.422Z,10.70
2018-10-17T04:40:19.373Z,10.60
2018-10-17T04:42:46.982Z,10.60
2018-10-17T04:45:14.809Z,10.50
2018-10-17T04:47:43.317Z,10.50
2018-10-17T04:50:11.133Z,10.60
2018-10-17T04:52:39.628Z,10.70
2018-10-17T04:55:09.210Z,10.70
2018-10-17T04:57:36.733Z,10.60
2018-10-17T05:00:07.230Z,10.50
2018-10-17T05:02:34.821Z,10.40
2018-10-17T05:05:02.521Z,10.50
2018-10-17T05:07:30.178Z,10.50
2018-10-17T05:09:57.805Z,10.40
2018-10-17T05:12:25.507Z,10.30
2018-10-17T05:14:53.193Z,10.20
2018-10-17T05:17:21.116Z,10.30
2018-10-17T05:19:48.699Z,10.40
2018-10-17T05:22:16.302Z,10.50
2018-10-17T05:24:44.010Z,10.60
2018-10-17T05:27:11.941Z,10.50
2018-10-17T05:29:39.634Z,10.40
2018-10-17T05:32:07.245Z,10.30
2018-10-17T05:34:35.417Z,10.30
2018-10-17T05:37:03.157Z,10.20
2018-10-17T05:39:30.771Z,10.30
2018-10-17T05:41:58.513Z,10.40
2018-10-17T05:44:26.175Z,10.50
2018-10-17T05:46:54.170Z,10.50
2018-10-17T05:49:21.779Z,10.50
2018-10-17T05:51:50.281Z,10.60
2018-10-17T05:54:17.932Z,10.60
2018-10-17T05:56:45.619Z,10.60
2018-10-17T05:59:13.373Z,10.60
2018-10-17T06:01:41.150Z,10.60
2018-10-17T06:04:08.821Z,10.60
2018-10-17T06:06:36.523Z,10.60
2018-10-17T06:09:06.511Z,10.50
2018-10-17T06:11:34.155Z,10.60
2018-10-17T06:14:01.929Z,10.60
2018-10-17T06:16:29.817Z,10.60
2018-10-17T06:18:57.493Z,10.60
2018-10-17T06:21:25.212Z,10.50
2018-10-17T06:23:53.903Z,10.60
2018-10-17T06:26:21.589Z,10.60
2018-10-17T06:28:49.203Z,10.60
2018-10-17T06:31:17.032Z,10.70
2018-10-17T06:33:44.652Z,10.80
2018-10-17T06:36:12.228Z,10.80
2018-10-17T06:38:39.839Z,10.80
2018-10-17T06:41:07.848Z,10.80
2018-10-17T06:43:35.499Z,10.80
2018-10-17T06:46:03.240Z,10.80
2018-10-17T06:48:30.961Z,11.00
2018-10-17T06:50:58.672Z,11.10
2018-10-17T06:53:26.254Z,11.20
2018-10-17T06:55:54.121Z,11.40
2018-10-17T06:58:21.773Z,11.40
2018-10-17T07:00:49.463Z,11.30
2018-10-17T07:03:17.910Z,11.30
2018-10-17T07:05:45.526Z,11.30
2018-10-17T07:08:13.217Z,11.50
2018-10-17T07:10:40.802Z,11.70
2018-10-17T07:13:08.541Z,11.80
2018-10-17T07:15:36.266Z,11.90
2018-10-17T07:18:04.229Z,12.00
2018-10-17T07:20:31.844Z,12.20
2018-10-17T07:22:59.527Z,12.20
2018-10-17T07:25:27.413Z,12.30
2018-10-17T07:27:55.120Z,12.40
2018-10-17T07:30:22.764Z,12.50
2018-10-17T07:32:50.437Z,12.60
2018-10-17T07:35:19.147Z,12.80
2018-10-17T07:37:46.841Z,13.00
2018-10-17T07:40:15.267Z,13.20
2018-10-17T07:42:42.914Z,13.50
2018-10-17T07:45:10.600Z,13.60
2018-10-17T07:47:38.274Z,13.70
2018-10-17T07:50:07.183Z,13.80
2018-10-17T07:52:35.447Z,13.90
2018-10-17T07:55:03.261Z,14.00
2018-10-17T07:57:31.024Z,14.20
2018-10-17T07:59:58.719Z,14.30
2018-10-17T08:02:26.448Z,14.40
2018-10-17T08:04:54.139Z,14.40
2018-10-17T08:07:21.837Z,14.40
2018-10-17T08:09:49.950Z,14.50
2018-10-17T08:12:17.570Z,14.60
2018-10-17T08:14:45.192Z,14.80
2018-10-17T08:17:13.409Z,14.90
2018-10-17T08:19:41.745Z,15.00
2018-10-17T08:22:09.396Z,15.00
2018-10-17T08:24:37.021Z,15.00
2018-10-17T08:27:05.550Z,15.00
2018-10-17T08:29:33.282Z,15.10
2018-10-17T08:32:00.959Z,15.20
2018-10-17T08:34:28.641Z,15.30
2018-10-17T08:36:57.286Z,15.40
2018-10-17T08:39:24.416Z,15.50
2018-10-17T08:41:52.056Z,15.60
2018-10-17T08:44:20.248Z,15.90
2018-10-17T08:46:47.921Z,16.20
2018-10-17T08:49:15.581Z,16.50
2018-10-17T08:51:43.259Z,16.80
2018-10-17T08:54:11.150Z,17.10
2018-10-17T08:56:38.819Z,17.10
2018-10-17T08:59:07.138Z,17.00
2018-10-17T09:01:34.800Z,17.10
2018-10-17T09:04:02.448Z,17.40
2018-10-17T09:06:31.045Z,17.60
2018-10-17T09:08:58.726Z,17.70
2018-10-17T09:11:26.374Z,17.40
2018-10-17T09:13:54.124Z,17.30
2018-10-17T09:16:21.795Z,17.30
2018-10-17T09:18:49.332Z,17.40
2018-10-17T09:21:17.253Z,17.60
2018-10-17T09:23:44.628Z,17.60
2018-10-17T09:26:12.470Z,17.60
2018-10-17T09:28:40.086Z,17.80
2018-10-17T09:31:08.287Z,17.90
2018-10-17T09:33:35.917Z,18.10
2018-10-17T09:36:03.853Z,18.20
2018-10-17T09:38:31.534Z,18.60
2018-10-17T09:40:59.213Z,18.80
2018-10-17T09:43:26.951Z,19.00
2018-10-17T09:45:54.481Z,19.10
2018-10-17T09:48:22.364Z,18.90
2018-10-17T09:50:49.989Z,18.70
2018-10-17T09:53:17.722Z,18.80
2018-10-17T09:55:46.182Z,19.10
2018-10-17T09:58:14.101Z,19.40
2018-10-17T10:00:47.432Z,19.70
2018-10-17T10:03:15.039Z,19.90
2018-10-17T10:05:42.670Z,20.20
2018-10-17T10:10:49.218Z,20.30
2018-10-17T10:13:16.818Z,20.10
2018-10-17T10:15:44.577Z,20.00
2018-10-17T10:18:17.467Z,19.90
2018-10-17T10:23:15.273Z,19.70
2018-10-17T10:25:42.766Z,19.90
2018-10-17T10:28:10.427Z,20.00
2018-10-17T10:30:38.530Z,20.00
2018-10-17T10:33:06.161Z,19.90
2018-10-17T10:35:33.798Z,19.50
2018-10-17T10:38:02.510Z,19.50
2018-10-17T10:40:30.280Z,19.60
2018-10-17T10:42:57.964Z,19.70
2018-10-17T10:45:25.645Z,20.00
2018-10-17T10:47:53.337Z,20.10
2018-10-17T10:50:21.771Z,20.20
2018-10-17T10:52:49.396Z,20.40
2018-10-17T10:55:16.949Z,20.60
2018-10-17T10:57:44.635Z,20.80
2018-10-17T11:00:13.028Z,21.00
2018-10-17T11:02:41.283Z,21.10
2018-10-17T11:05:09.644Z,21.20
2018-10-17T11:07:37.290Z,21.30
2018-10-17T11:10:05.094Z,21.30
2018-10-17T11:12:32.750Z,20.90
2018-10-17T11:15:00.625Z,20.80
2018-10-17T11:17:28.011Z,20.70
2018-10-17T11:19:55.701Z,20.40
2018-10-17T11:22:23.326Z,20.30
2018-10-17T11:24:51.029Z,20.40
2018-10-17T11:27:19.514Z,20.70
2018-10-17T11:29:46.957Z,20.80
2018-10-17T11:32:14.602Z,20.60
2018-10-17T11:34:42.176Z,20.30
2018-10-17T11:37:10.694Z,20.50
2018-10-17T11:39:38.265Z,20.80
2018-10-17T11:42:06.170Z,21.30
2018-10-17T11:44:33.925Z,21.60
2018-10-17T11:47:01.729Z,21.80
2018-10-17T11:49:29.403Z,21.30
2018-10-17T11:51:57.038Z,21.20
2018-10-17T11:54:24.745Z,21.40
2018-10-17T11:56:53.035Z,21.50
2018-10-17T11:59:21.663Z,21.60
2018-10-17T12:01:49.265Z,21.50
2018-10-17T12:04:17.316Z,21.60
2018-10-17T12:06:44.570Z,21.30
2018-10-17T12:09:12.992Z,21.20
2018-10-17T12:11:41.225Z,21.10
2018-10-17T12:14:08.926Z,20.90
2018-10-17T12:16:36.567Z,20.90
2018-10-17T12:19:04.630Z,20.90
2018-10-17T12:21:32.403Z,21.10
2018-10-17T12:24:00.272Z,21.20
2018-10-17T12:26:27.791Z,21.20
2018-10-17T12:28:55.599Z,21.20
2018-10-17T12:31:23.245Z,21.20
2018-10-17T12:33:50.901Z,21.30
2018-10-17T12:36:18.642Z,21.50
2018-10-17T12:38:46.313Z,21.60
2018-10-17T12:41:14.842Z,21.70
2018-10-17T12:43:42.533Z,21.60
2018-10-17T12:46:10.904Z,21.40
2018-10-17T12:48:38.718Z,21.60
2018-10-17T12:51:06.727Z,21.70
2018-10-17T12:53:34.389Z,21.70
2018-10-17T12:56:02.273Z,21.70
2018-10-17T12:58:30.598Z,21.80
2018-10-17T13:00:58.288Z,21.70
2018-10-17T13:03:26.048Z,21.70
2018-10-17T13:05:53.754Z,21.90
2018-10-17T13:08:21.517Z,22.20
2018-10-17T13:10:49.166Z,22.10
2018-10-17T13:13:17.521Z,22.10
2018-10-17T13:15:45.033Z,22.10
2018-10-17T13:18:12.805Z,22.20
2018-10-17T13:20:40.437Z,22.40
2018-10-17T13:23:08.738Z,22.60
2018-10-17T13:25:36.992Z,22.40
2018-10-17T13:28:05.398Z,22.00
2018-10-17T13:30:32.982Z,21.90
2018-10-17T13:33:00.661Z,21.80
2018-10-17T13:35:28.349Z,21.90
2018-10-17T13:37:55.935Z,21.80
2018-10-17T13:40:23.627Z,21.80
2018-10-17T13:42:51.338Z,21.70
2018-10-17T13:45:19.006Z,21.80
2018-10-17T13:47:46.593Z,21.80
2018-10-17T13:50:14.354Z,21.90
2018-10-17T13:52:41.943Z,22.10
2018-10-17T13:55:09.708Z,22.10
2018-10-17T13:57:37.354Z,22.00
2018-10-17T14:00:06.535Z,22.00
2018-10-17T14:02:34.232Z,22.00
2018-10-17T14:05:01.874Z,22.10
2018-10-17T14:07:29.566Z,22.10
2018-10-17T14:09:57.169Z,22.00
2018-10-17T14:12:24.923Z,21.90
2018-10-17T14:14:52.584Z,21.90
2018-10-17T14:17:20.239Z,22.00
2018-10-17T14:19:47.780Z,22.00
2018-10-17T14:22:15.509Z,22.20
2018-10-17T14:24:43.212Z,22.30
2018-10-17T14:27:10.842Z,22.30
2018-10-17T14:29:38.622Z,22.40
2018-10-17T14:32:06.157Z,22.50
2018-10-17T14:34:33.977Z,22.60
2018-10-17T14:37:01.642Z,22.60
2018-10-17T14:39:29.420Z,22.50
2018-10-17T14:41:57.716Z,22.20
2018-10-17T14:44:25.493Z,22.10
2018-10-17T14:46:53.379Z,22.00
2018-10-17T14:49:21.520Z,22.00
2018-10-17T14:51:49.254Z,21.90
2018-10-17T14:54:16.968Z,22.00
2018-10-17T14:56:44.622Z,21.90
2018-10-17T14:59:12.862Z,21.90
2018-10-17T15:01:40.617Z,21.80
2018-10-17T15:04:08.280Z,21.80
2018-10-17T15:06:36.125Z,21.80
2018-10-17T15:09:05.445Z,21.70
2018-10-17T15:11:33.284Z,21.70
2018-10-17T15:14:01.034Z,21.60
2018-10-17T15:16:29.703Z,21.60
2018-10-17T15:18:57.373Z,21.60
2018-10-17T15:21:25.594Z,21.60
2018-10-17T15:23:53.268Z,21.60
2018-10-17T15:26:20.914Z,21.60
2018-10-17T15:28:48.624Z,21.60
2018-10-17T15:31:16.350Z,21.50
2018-10-17T15:33:44.001Z,21.40
2018-10-17T15:36:11.933Z,21.40
2018-10-17T15:38:39.573Z,21.30
2018-10-17T15:41:07.254Z,21.30
2018-10-17T15:43:35.705Z,21.20
2018-10-17T15:46:03.321Z,21.20
2018-10-17T15:48:30.965Z,21.10
2018-10-17T15:50:58.642Z,21.00
2018-10-17T15:53:26.756Z,21.00
2018-10-17T15:55:55.054Z,21.00
2018-10-17T15:58:23.278Z,20.90
2018-10-17T16:00:50.931Z,20.90
2018-10-17T16:03:18.627Z,20.80
2018-10-17T16:05:46.960Z,20.80
2018-10-17T16:08:14.671Z,20.70
2018-10-17T16:10:42.230Z,20.60
2018-10-17T16:13:09.821Z,20.60
2018-10-17T16:15:38.666Z,20.50
2018-10-17T16:18:06.884Z,20.40
2018-10-17T16:20:34.553Z,20.30
2018-10-17T16:23:02.422Z,20.20
2018-10-17T16:25:30.574Z,20.10
2018-10-17T16:27:58.170Z,20.10
2018-10-17T16:30:25.920Z,19.90
2018-10-17T16:32:53.431Z,19.80
2018-10-17T16:35:21.165Z,19.50
2018-10-17T16:37:49.579Z,19.40
2018-10-17T16:40:17.905Z,19.20
2018-10-17T16:42:49.798Z,19.10
2018-10-17T16:45:18.538Z,18.90
2018-10-17T16:47:46.295Z,18.80
2018-10-17T16:50:14.729Z,18.50
2018-10-17T16:52:42.438Z,18.50
2018-10-17T16:55:10.244Z,18.50
2018-10-17T16:57:38.220Z,18.30
2018-10-17T17:00:07.569Z,18.10
2018-10-17T17:02:35.206Z,17.90
2018-10-17T17:05:03.183Z,18.00
2018-10-17T17:07:31.164Z,17.90
2018-10-17T17:09:58.836Z,17.70
2018-10-17T17:12:26.488Z,17.80
2018-10-17T17:14:54.137Z,17.80
2018-10-17T17:17:21.734Z,17.70
2018-10-17T17:19:49.440Z,17.50
2018-10-17T17:22:17.141Z,17.40
2018-10-17T17:24:44.945Z,17.30
2018-10-17T17:27:13.225Z,17.10
2018-10-17T17:29:42.164Z,17.00
2018-10-17T17:32:09.842Z,16.90
2018-10-17T17:34:37.813Z,16.90
2018-10-17T17:37:05.517Z,16.80
2018-10-17T17:39:33.951Z,16.90
2018-10-17T17:42:01.833Z,16.80
2018-10-17T17:44:35.786Z,16.60
2018-10-17T17:47:04.054Z,16.60
2018-10-17T17:49:31.703Z,16.40
2018-10-17T17:51:59.377Z,16.40
2018-10-17T17:54:27.170Z,16.30
2018-10-17T17:56:54.846Z,16.30
2018-10-17T17:59:22.644Z,16.20
2018-10-17T18:01:50.342Z,16.10
2018-10-17T18:04:18.645Z,15.90
2018-10-17T18:06:46.397Z,15.80
2018-10-17T18:09:15.256Z,15.80
2018-10-17T18:11:47.092Z,15.80
2018-10-17T18:14:14.888Z,15.80
2018-10-17T18:16:42.634Z,15.60
2018-10-17T18:19:10.376Z,15.70
2018-10-17T18:21:38.207Z,15.60
2018-10-17T18:24:05.913Z,15.70
2018-10-17T18:26:33.762Z,15.60
2018-10-17T18:29:01.575Z,15.60
2018-10-17T18:31:34.054Z,15.60
2018-10-17T18:34:05.570Z,15.60
2018-10-17T18:36:33.483Z,15.60
2018-10-17T18:39:06.390Z,15.50
2018-10-17T18:41:34.290Z,15.50
2018-10-17T18:44:02.199Z,15.40
2018-10-17T18:46:30.172Z,15.40
2018-10-17T18:48:57.948Z,15.40
2018-10-17T18:51:25.783Z,15.40
2018-10-17T18:53:54.307Z,15.50
2018-10-17T18:56:22.182Z,15.50
2018-10-17T18:58:50.313Z,15.60
2018-10-17T19:01:19.169Z,15.50
2018-10-17T19:03:47.007Z,15.40
2018-10-17T19:06:14.725Z,15.40
2018-10-17T19:08:44.077Z,15.40
2018-10-17T19:11:11.868Z,15.40
2018-10-17T19:13:40.899Z,15.40
2018-10-17T19:16:08.839Z,15.30
2018-10-17T19:18:36.670Z,15.20
2018-10-17T19:21:04.740Z,15.20
2018-10-17T19:23:32.576Z,15.30
2018-10-17T19:26:00.492Z,15.30
2018-10-17T19:28:28.263Z,15.30
2018-10-17T19:30:56.608Z,15.20
2018-10-17T19:33:24.415Z,15.10
2018-10-17T19:35:52.480Z,15.00
2018-10-17T19:38:20.391Z,15.00
2018-10-17T19:40:48.061Z,14.90
2018-10-17T19:43:15.849Z,14.90
2018-10-17T19:45:43.490Z,14.90
2018-10-17T19:48:11.126Z,14.90
2018-10-17T19:50:39.565Z,14.90
2018-10-17T19:53:07.328Z,14.90
2018-10-17T19:55:35.672Z,14.90
2018-10-17T19:58:03.529Z,14.80
2018-10-17T20:00:31.302Z,14.90
2018-10-17T20:02:59.035Z,14.70
2018-10-17T20:05:26.816Z,14.60
2018-10-17T20:07:54.513Z,14.60
2018-10-17T20:10:22.198Z,14.60
2018-10-17T20:12:49.908Z,14.60
2018-10-17T20:15:17.648Z,14.60
2018-10-17T20:17:45.427Z,14.60
2018-10-17T20:20:17.881Z,14.40
2018-10-17T20:22:46.665Z,14.50
2018-10-17T20:25:15.041Z,14.30
2018-10-17T20:27:42.813Z,14.40
2018-10-17T20:30:11.696Z,14.50
2018-10-17T20:32:39.522Z,14.50
2018-10-17T20:35:09.283Z,14.40
2018-10-17T20:37:38.066Z,14.40
2018-10-17T20:40:06.918Z,14.40
2018-10-17T20:42:34.642Z,14.30
2018-10-17T20:45:03.171Z,14.30
2018-10-17T20:47:31.622Z,14.40
2018-10-17T20:50:03.591Z,14.30
2018-10-17T20:52:32.005Z,14.30
2018-10-17T20:54:59.744Z,14.20
2018-10-17T20:57:28.355Z,14.20
2018-10-17T20:59:56.666Z,14.20
2018-10-17T21:02:25.208Z,14.10
2018-10-17T21:04:52.874Z,14.00
2018-10-17T21:07:21.153Z,14.00
2018-10-17T21:09:49.094Z,14.00
2018-10-17T21:12:16.952Z,14.10
2018-10-17T21:14:44.640Z,14.10
2018-10-17T21:17:12.311Z,14.00
2018-10-17T21:19:44.302Z,14.00
2018-10-17T21:24:39.994Z,14.00
2018-10-17T21:27:09.072Z,13.80
2018-10-17T21:29:37.000Z,13.80
2018-10-17T21:32:06.006Z,13.70
2018-10-17T21:34:33.857Z,13.80
2018-10-17T21:37:02.137Z,13.80
2018-10-17T21:39:30.604Z,13.70
2018-10-17T21:41:58.263Z,13.70
2018-10-17T21:44:25.900Z,13.80
2018-10-17T21:46:53.943Z,13.90
2018-10-17T21:49:21.691Z,13.80
2018-10-17T21:51:49.673Z,13.70
2018-10-17T21:54:17.545Z,13.80
2018-10-17T21:56:45.737Z,13.80
2018-10-17T21:59:13.462Z,13.80
2018-10-17T22:01:41.666Z,13.70
2018-10-17T22:04:09.394Z,13.70
2018-10-17T22:06:37.107Z,13.70
2018-10-17T22:09:07.876Z,13.70
2018-10-17T22:11:35.704Z,13.80
2018-10-17T22:14:04.327Z,13.80
2018-10-17T22:16:37.873Z,13.80
2018-10-17T22:19:06.487Z,13.80
2018-10-17T22:21:38.556Z,13.70
2018-10-17T22:24:15.436Z,13.60
2018-10-17T22:26:43.126Z,13.50
2018-10-17T22:29:12.078Z,13.50
2018-10-17T22:31:39.819Z,13.50
2018-10-17T22:34:08.203Z,13.60
2018-10-17T22:36:35.976Z,13.50
2018-10-17T22:39:07.116Z,13.50
2018-10-17T22:41:34.894Z,13.40
2018-10-17T22:44:03.328Z,13.40
2018-10-17T22:46:36.591Z,13.30
2018-10-17T22:49:04.765Z,13.50
2018-10-17T22:51:32.495Z,13.50
2018-10-17T22:54:00.769Z,13.50
2018-10-17T22:56:29.141Z,13.40
2018-10-17T23:01:27.488Z,13.40
2018-10-17T23:03:55.103Z,13.40
2018-10-17T23:06:22.737Z,13.30
2018-10-17T23:08:50.409Z,13.30
2018-10-17T23:11:18.801Z,13.30
2018-10-17T23:13:47.546Z,13.30
2018-10-17T23:16:16.198Z,13.20
2018-10-17T23:18:43.838Z,13.20
2018-10-17T23:21:16.754Z,13.20
2018-10-17T23:23:44.377Z,13.30
2018-10-17T23:26:13.998Z,13.30
2018-10-17T23:28:41.537Z,13.10
2018-10-17T23:31:09.304Z,13.10
2018-10-17T23:33:37.465Z,13.20
2018-10-17T23:36:05.227Z,13.20
2018-10-17T23:38:32.883Z,13.10
2018-10-17T23:41:00.683Z,13.10
2018-10-17T23:43:28.521Z,13.20
2018-10-17T23:45:57.499Z,13.20
2018-10-17T23:48:25.512Z,13.10
2018-10-17T23:50:53.219Z,13.00
2018-10-17T23:53:22.228Z,13.00
2018-10-17T23:55:49.961Z,12.90
2018-10-17T23:58:17.565Z,13.00
